Darstellungsparameter: Aktuell verwendete Einstellungen:
Skalierung der Graphiken ... ?
xyx+y,   Skalierungsfaktor:      Skalierung: Modus: x, Faktor: 1
Darstellungszeitraum ... ?
Vom - - bis: - -   Zeitraum: 29.12.2016 - 29.12.2016
Min/Max/Avg-Anzeige ... ?
Zeige MMA aktuell
Zeige MMA Monat
Zeige MMA alles
Zeige --A aktuell
Zeige --A Monat
Zeige --A alles
Keine MMA-Anzeige
MMA:
Average (ber die Originaldaten)
MMA-Basis: 29.12.2016 - 29.12.2016
Quicknavigation für Darstellung... ?
Tage:      1T, 2T, 3T, 5T -1T -2T -3T -5T +1T +2T +3T +5T
Wochen: 1W, 2W, 3W -1W -2W -3W +1W +2W +3W
Monate: 1M, 3M, 6M -1M -3M -6M +1M +3M +6M
Jahre:    1J, 3J, 5J, 10J -1J -3J -5J -10J +1J +3J +5J +10J
Nutze für die Darstellung ... ?
Originaldaten oder Mittelwerte auf ...
Stundenbasis Tagesbasis Wochenbasis
Monatsbasis Jahresbasis      Datenbasis: Original-Daten
Darstellen als:
Statistik (Auto) Statistik J:M      Darstellung:
Zur Graphik,    zurück zur Übersicht aller Sensoren.
 
Tabellarische Datenbersicht: ?
 
Sensor: Nr:Datum:Temp:Abs-Feuchte:Windchill:Wind:
Aussen-T/F 1 29-12-2016 00:00:00 -1.2 C 4.24 g/m*3 -1.2 C 0 km/h
2 29-12-2016 00:05:00 -1.1 C 4.26 g/m*3 -1.1 C 0 km/h
3 29-12-2016 00:10:00 -1.1 C 4.26 g/m*3 -1.1 C 0 km/h
4 29-12-2016 00:15:00 -1.2 C 4.24 g/m*3 -1.2 C 0 km/h
5 29-12-2016 00:20:00 -1.2 C 4.24 g/m*3 -1.2 C 0 km/h
6 29-12-2016 00:25:00 -1.3 C 4.21 g/m*3 -1.3 C 0 km/h
7 29-12-2016 00:30:00 -1.4 C 4.18 g/m*3 -1.4 C 0 km/h
8 29-12-2016 00:35:00 -1.5 C 4.15 g/m*3 -1.5 C 0 km/h
9 29-12-2016 00:40:00 -1.5 C 4.15 g/m*3 -1.5 C 0 km/h
10 29-12-2016 00:45:00 -1.5 C 4.15 g/m*3 -1.5 C 0 km/h
11 29-12-2016 00:50:00 -1.5 C 4.15 g/m*3 -1.5 C 0 km/h
12 29-12-2016 00:55:00 -1.5 C 4.15 g/m*3 -1.5 C 0 km/h
13 29-12-2016 01:00:00 -1.6 C 4.12 g/m*3 -1.6 C 0 km/h
14 29-12-2016 01:05:00 -1.6 C 4.12 g/m*3 -1.6 C 0 km/h
15 29-12-2016 01:10:00 -1.6 C 4.12 g/m*3 -1.6 C 0 km/h
16 29-12-2016 01:15:00 -1.6 C 4.12 g/m*3 -1.6 C 0 km/h
17 29-12-2016 01:20:00 -1.7 C 4.09 g/m*3 -1.7 C 0 km/h
18 29-12-2016 01:25:00 -1.7 C 4.09 g/m*3 -1.7 C 0 km/h
19 29-12-2016 01:30:00 -1.7 C 4.09 g/m*3 -1.7 C 0 km/h
20 29-12-2016 01:35:00 -1.7 C 4.09 g/m*3 -1.7 C 0 km/h
21 29-12-2016 01:40:00 -1.8 C 4.06 g/m*3 -1.8 C 0 km/h
22 29-12-2016 01:45:00 -1.8 C 4.06 g/m*3 -1.8 C 0 km/h
23 29-12-2016 01:50:00 -1.8 C 4.06 g/m*3 -1.8 C 0 km/h
24 29-12-2016 01:55:00 -1.8 C 4.06 g/m*3 -1.8 C 0 km/h
25 29-12-2016 02:00:00 -1.7 C 4.09 g/m*3 -1.7 C 0 km/h
Sensor: Nr:Datum:Temp:Abs-Feuchte:Windchill:Wind:
Aussen-T/F 26 29-12-2016 02:05:00 -1.7 C 4.09 g/m*3 -1.7 C 0 km/h
27 29-12-2016 02:10:00 -1.8 C 4.06 g/m*3 -1.8 C 0 km/h
28 29-12-2016 02:15:00 -1.8 C 4.06 g/m*3 -1.8 C 0 km/h
29 29-12-2016 02:20:00 -1.8 C 4.06 g/m*3 -1.8 C 0 km/h
30 29-12-2016 02:25:00 -1.9 C 4.03 g/m*3 -1.9 C 0 km/h
31 29-12-2016 02:30:00 -1.9 C 4.03 g/m*3 -1.9 C 0 km/h
32 29-12-2016 02:35:00 -1.9 C 4.03 g/m*3 -1.9 C 0 km/h
33 29-12-2016 02:40:00 -1.9 C 4.08 g/m*3 -1.9 C 0 km/h
34 29-12-2016 02:45:00 -1.8 C 4.1 g/m*3 -1.8 C 0 km/h
35 29-12-2016 02:50:00 -1.7 C 4.13 g/m*3 -1.7 C 0 km/h
36 29-12-2016 02:55:00 -1.7 C 4.13 g/m*3 -1.7 C 0 km/h
37 29-12-2016 03:00:00 -1.7 C 4.13 g/m*3 -1.7 C 0 km/h
38 29-12-2016 03:05:00 -1.6 C 4.16 g/m*3 -1.6 C 0 km/h
39 29-12-2016 03:10:00 -1.6 C 4.16 g/m*3 -1.6 C 0 km/h
40 29-12-2016 03:15:00 -1.6 C 4.16 g/m*3 -1.6 C 0 km/h
41 29-12-2016 03:20:00 -1.6 C 4.16 g/m*3 -1.6 C 0 km/h
42 29-12-2016 03:25:00 -1.6 C 4.16 g/m*3 -1.6 C 0 km/h
43 29-12-2016 03:30:00 -1.6 C 4.16 g/m*3 -1.6 C 0 km/h
44 29-12-2016 03:35:00 -1.6 C 4.16 g/m*3 -1.6 C 0 km/h
45 29-12-2016 03:40:00 -1.6 C 4.16 g/m*3 -1.6 C 0 km/h
46 29-12-2016 03:45:00 -1.6 C 4.16 g/m*3 -1.6 C 0 km/h
47 29-12-2016 03:50:00 -1.6 C 4.16 g/m*3 -1.6 C 0 km/h
48 29-12-2016 03:55:00 -1.6 C 4.16 g/m*3 -1.6 C 1.6 km/h
49 29-12-2016 04:00:00 -1.6 C 4.16 g/m*3 -1.6 C 0 km/h
50 29-12-2016 04:05:00 -1.7 C 4.13 g/m*3 -1.7 C 3.2 km/h
Sensor: Nr:Datum:Temp:Abs-Feuchte:Windchill:Wind:
Aussen-T/F 51 29-12-2016 04:10:00 -1.7 C 4.13 g/m*3 -1.7 C 1.6 km/h
52 29-12-2016 04:15:00 -1.7 C 4.13 g/m*3 -1.7 C 1.6 km/h
53 29-12-2016 04:20:00 -1.8 C 4.1 g/m*3 -1.8 C 3.2 km/h
54 29-12-2016 04:25:00 -1.8 C 4.1 g/m*3 -1.8 C 1.6 km/h
55 29-12-2016 04:30:00 -1.9 C 4.08 g/m*3 -1.9 C 0 km/h
56 29-12-2016 04:35:00 -1.9 C 4.08 g/m*3 -1.9 C 1.6 km/h
57 29-12-2016 04:40:00 -1.9 C 4.08 g/m*3 -1.9 C 1.6 km/h
58 29-12-2016 04:45:00 -1.9 C 4.08 g/m*3 -1.9 C 1.6 km/h
59 29-12-2016 04:50:00 -1.9 C 4.08 g/m*3 -1.9 C 0 km/h
60 29-12-2016 04:55:00 -1.9 C 4.08 g/m*3 -1.9 C 0 km/h
61 29-12-2016 05:00:00 -2 C 4.05 g/m*3 -2 C 3.2 km/h
62 29-12-2016 05:05:00 -2 C 4.05 g/m*3 -2 C 1.6 km/h
63 29-12-2016 05:10:00 -2 C 4.05 g/m*3 -2 C 1.6 km/h
64 29-12-2016 05:15:00 -2 C 4.05 g/m*3 -2 C 1.6 km/h
65 29-12-2016 05:20:00 -2 C 4.05 g/m*3 -2 C 1.6 km/h
66 29-12-2016 05:25:00 -2 C 4.05 g/m*3 -2 C 0 km/h
67 29-12-2016 05:30:00 -2 C 4.05 g/m*3 -2 C 0 km/h
68 29-12-2016 05:35:00 -2 C 4.05 g/m*3 -2 C 0 km/h
69 29-12-2016 05:40:00 -2.1 C 4.02 g/m*3 -2.1 C 3.2 km/h
70 29-12-2016 05:45:00 -2.1 C 4.02 g/m*3 -2.1 C 0 km/h
71 29-12-2016 05:50:00 -2.1 C 4.02 g/m*3 -2.1 C 0 km/h
72 29-12-2016 05:55:00 -2.1 C 4.02 g/m*3 -2.1 C 0 km/h
73 29-12-2016 06:00:00 -2.2 C 3.99 g/m*3 -2.2 C 0 km/h
74 29-12-2016 06:05:00 -2.2 C 3.99 g/m*3 -2.2 C 0 km/h
75 29-12-2016 06:10:00 -2.2 C 3.99 g/m*3 -2.2 C 0 km/h
Sensor: Nr:Datum:Temp:Abs-Feuchte:Windchill:Wind:
Aussen-T/F 76 29-12-2016 06:15:00 -2.2 C 3.99 g/m*3 -2.2 C 0 km/h
77 29-12-2016 06:20:00 -2.2 C 3.99 g/m*3 -2.2 C 0 km/h
78 29-12-2016 06:25:00 -2.2 C 3.99 g/m*3 -2.2 C 0 km/h
79 29-12-2016 06:30:00 -2.2 C 3.99 g/m*3 -2.2 C 0 km/h
80 29-12-2016 06:35:00 -2.3 C 3.96 g/m*3 -2.3 C 0 km/h
81 29-12-2016 06:40:00 -2.3 C 3.96 g/m*3 -2.3 C 0 km/h
82 29-12-2016 06:45:00 -2.3 C 3.96 g/m*3 -2.3 C 0 km/h
83 29-12-2016 06:50:00 -2.3 C 3.96 g/m*3 -2.3 C 0 km/h
84 29-12-2016 06:55:00 -2.4 C 3.93 g/m*3 -2.4 C 0 km/h
85 29-12-2016 07:00:00 -2.4 C 3.93 g/m*3 -2.4 C 0 km/h
86 29-12-2016 07:05:00 -2.4 C 3.93 g/m*3 -2.4 C 0 km/h
87 29-12-2016 07:10:00 -2.5 C 3.91 g/m*3 -2.5 C 1.6 km/h
88 29-12-2016 07:15:00 -2.6 C 3.88 g/m*3 -2.6 C 1.6 km/h
89 29-12-2016 07:20:00 -2.6 C 3.88 g/m*3 -2.6 C 0 km/h
90 29-12-2016 07:25:00 -2.6 C 3.88 g/m*3 -2.6 C 0 km/h
91 29-12-2016 07:30:00 -2.6 C 3.88 g/m*3 -2.6 C 0 km/h
92 29-12-2016 07:35:00 -2.6 C 3.88 g/m*3 -2.6 C 0 km/h
93 29-12-2016 07:40:00 -2.6 C 3.88 g/m*3 -2.6 C 1.6 km/h
94 29-12-2016 07:45:00 -2.6 C 3.88 g/m*3 -2.6 C 1.6 km/h
95 29-12-2016 07:50:00 -2.6 C 3.88 g/m*3 -2.6 C 1.6 km/h
96 29-12-2016 07:55:00 -2.6 C 3.88 g/m*3 -2.6 C 1.6 km/h
97 29-12-2016 08:00:00 -2.7 C 3.85 g/m*3 -2.7 C 4.8 km/h
98 29-12-2016 08:05:00 -2.7 C 3.85 g/m*3 -2.7 C 4.8 km/h
99 29-12-2016 08:10:00 -2.7 C 3.85 g/m*3 -2.7 C 3.2 km/h
100 29-12-2016 08:15:00 -2.7 C 3.85 g/m*3 -2.7 C 1.6 km/h
Sensor: Nr:Datum:Temp:Abs-Feuchte:Windchill:Wind:
Aussen-T/F 101 29-12-2016 08:20:00 -2.7 C 3.85 g/m*3 -2.7 C 0 km/h
102 29-12-2016 08:25:00 -2.7 C 3.85 g/m*3 -2.7 C 0 km/h
103 29-12-2016 08:30:00 -2.7 C 3.85 g/m*3 -2.7 C 0 km/h
104 29-12-2016 08:35:00 -2.7 C 3.85 g/m*3 -2.7 C 1.6 km/h
105 29-12-2016 08:40:00 -2.7 C 3.85 g/m*3 -2.7 C 0 km/h
106 29-12-2016 08:45:00 -2.7 C 3.85 g/m*3 -2.7 C 1.6 km/h
107 29-12-2016 08:50:00 -2.7 C 3.85 g/m*3 -2.7 C 0 km/h
108 29-12-2016 08:55:00 -2.7 C 3.85 g/m*3 -2.7 C 0 km/h
109 29-12-2016 09:00:00 -2.7 C 3.85 g/m*3 -2.7 C 0 km/h
110 29-12-2016 09:05:00 -2.7 C 3.85 g/m*3 -2.7 C 0 km/h
111 29-12-2016 09:10:00 -2.7 C 3.85 g/m*3 -2.7 C 3.2 km/h
112 29-12-2016 09:15:00 -2.7 C 3.85 g/m*3 -2.7 C 1.6 km/h
113 29-12-2016 09:20:00 -2.7 C 3.85 g/m*3 -2.7 C 0 km/h
114 29-12-2016 09:25:00 -2.7 C 3.85 g/m*3 -2.7 C 0 km/h
115 29-12-2016 09:30:00 -2.7 C 3.85 g/m*3 -2.7 C 0 km/h
116 29-12-2016 09:35:00 -2.7 C 3.85 g/m*3 -2.7 C 1.6 km/h
117 29-12-2016 09:40:00 -2.7 C 3.85 g/m*3 -2.7 C 3.2 km/h
118 29-12-2016 09:45:00 -2.7 C 3.85 g/m*3 -2.7 C 1.6 km/h
119 29-12-2016 09:50:00 -2.7 C 3.85 g/m*3 -2.7 C 1.6 km/h
120 29-12-2016 09:55:00 -2.8 C 3.82 g/m*3 -2.8 C 0 km/h
121 29-12-2016 10:00:00 -2.8 C 3.82 g/m*3 -2.8 C 1.6 km/h
122 29-12-2016 10:05:00 -2.8 C 3.82 g/m*3 -2.8 C 0 km/h
123 29-12-2016 10:10:00 -2.8 C 3.82 g/m*3 -2.8 C 0 km/h
124 29-12-2016 10:15:00 -2.8 C 3.82 g/m*3 -2.8 C 0 km/h
125 29-12-2016 10:20:00 -2.8 C 3.82 g/m*3 -2.8 C 0 km/h
Sensor: Nr:Datum:Temp:Abs-Feuchte:Windchill:Wind:
Aussen-T/F 126 29-12-2016 10:25:00 -2.8 C 3.82 g/m*3 -2.8 C 0 km/h
127 29-12-2016 10:30:00 -2.7 C 3.85 g/m*3 -2.7 C 0 km/h
128 29-12-2016 10:35:00 -2.6 C 3.88 g/m*3 -2.6 C 0 km/h
129 29-12-2016 10:40:00 -2.6 C 3.88 g/m*3 -2.6 C 0 km/h
130 29-12-2016 10:45:00 -2.6 C 3.88 g/m*3 -2.6 C 0 km/h
131 29-12-2016 10:50:00 -2.5 C 3.91 g/m*3 -2.5 C 0 km/h
132 29-12-2016 10:55:00 -2.4 C 3.93 g/m*3 -2.4 C 0 km/h
133 29-12-2016 11:00:00 -2.3 C 3.96 g/m*3 -2.3 C 0 km/h
134 29-12-2016 11:05:00 -2.3 C 3.96 g/m*3 -2.3 C 0 km/h
135 29-12-2016 11:10:00 -2.2 C 3.99 g/m*3 -2.2 C 0 km/h
136 29-12-2016 11:15:00 -2.2 C 4.03 g/m*3 -2.2 C 0 km/h
137 29-12-2016 11:20:00 -2.2 C 3.99 g/m*3 -2.2 C 0 km/h
138 29-12-2016 11:25:00 -2.2 C 3.99 g/m*3 -2.2 C 1.6 km/h
139 29-12-2016 11:30:00 -2.2 C 3.99 g/m*3 -2.2 C 0 km/h
140 29-12-2016 11:35:00 -2.2 C 3.99 g/m*3 -2.2 C 0 km/h
141 29-12-2016 11:40:00 -2.2 C 3.99 g/m*3 -2.2 C 0 km/h
142 29-12-2016 11:45:00 -2.2 C 3.99 g/m*3 -2.2 C 0 km/h
143 29-12-2016 11:50:00 -2.2 C 3.99 g/m*3 -2.2 C 1.6 km/h
144 29-12-2016 11:55:00 -2.1 C 4.02 g/m*3 -2.1 C 0 km/h
145 29-12-2016 12:00:00 -2.1 C 4.02 g/m*3 -2.1 C 1.6 km/h
146 29-12-2016 12:05:00 -2.1 C 4.02 g/m*3 -2.1 C 0 km/h
147 29-12-2016 12:10:00 -2.1 C 4.02 g/m*3 -2.1 C 0 km/h
148 29-12-2016 12:15:00 -2 C 4.05 g/m*3 -2 C 0 km/h
149 29-12-2016 12:20:00 -2 C 4.09 g/m*3 -2 C 0 km/h
150 29-12-2016 12:25:00 -1.9 C 4.08 g/m*3 -1.9 C 0 km/h
Sensor: Nr:Datum:Temp:Abs-Feuchte:Windchill:Wind:
Aussen-T/F 151 29-12-2016 12:30:00 -1.9 C 4.08 g/m*3 -1.9 C 0 km/h
152 29-12-2016 12:35:00 -1.8 C 4.15 g/m*3 -1.8 C 3.2 km/h
153 29-12-2016 12:40:00 -1.7 C 4.13 g/m*3 -1.7 C 3.2 km/h
154 29-12-2016 12:45:00 -1.6 C 4.16 g/m*3 -1.6 C 4.8 km/h
155 29-12-2016 12:50:00 -1.5 C 4.23 g/m*3 -1.5 C 3.2 km/h
156 29-12-2016 12:55:00 -1.4 C 4.26 g/m*3 -1.4 C 0 km/h
157 29-12-2016 13:00:00 -1.4 C 4.26 g/m*3 -1.4 C 3.2 km/h
158 29-12-2016 13:05:00 -1.3 C 4.29 g/m*3 -1.3 C 1.6 km/h
159 29-12-2016 13:10:00 -1.3 C 4.29 g/m*3 -1.3 C 0 km/h
160 29-12-2016 13:15:00 -1.2 C 4.32 g/m*3 -1.2 C 1.6 km/h
161 29-12-2016 13:20:00 -1.2 C 4.32 g/m*3 -1.2 C 4.8 km/h
162 29-12-2016 13:25:00 -1.1 C 4.35 g/m*3 -1.1 C 3.2 km/h
163 29-12-2016 13:30:00 -1.1 C 4.35 g/m*3 -1.1 C 3.2 km/h
164 29-12-2016 13:35:00 -1 C 4.38 g/m*3 -1 C 3.2 km/h
165 29-12-2016 13:40:00 -1 C 4.38 g/m*3 -1 C 1.6 km/h
166 29-12-2016 13:45:00 -0.9 C 4.42 g/m*3 -0.9 C 0 km/h
167 29-12-2016 13:50:00 -0.8 C 4.45 g/m*3 -0.8 C 4.8 km/h
168 29-12-2016 13:55:00 -0.7 C 4.48 g/m*3 -0.7 C 4.8 km/h
169 29-12-2016 14:00:00 -0.7 C 4.48 g/m*3 -0.7 C 3.2 km/h
170 29-12-2016 14:05:00 -0.6 C 4.51 g/m*3 -0.6 C 3.2 km/h
171 29-12-2016 14:10:00 -0.6 C 4.51 g/m*3 -0.6 C 3.2 km/h
172 29-12-2016 14:15:00 -0.5 C 4.54 g/m*3 -0.5 C 0 km/h
173 29-12-2016 14:20:00 -0.5 C 4.54 g/m*3 -0.5 C 1.6 km/h
174 29-12-2016 14:25:00 -0.4 C 4.57 g/m*3 -0.4 C 1.6 km/h
175 29-12-2016 14:30:00 -0.4 C 4.57 g/m*3 -0.4 C 3.2 km/h
Sensor: Nr:Datum:Temp:Abs-Feuchte:Windchill:Wind:
Aussen-T/F 176 29-12-2016 14:35:00 -0.4 C 4.57 g/m*3 -0.4 C 4.8 km/h
177 29-12-2016 14:40:00 -0.3 C 4.6 g/m*3 -0.3 C 4.8 km/h
178 29-12-2016 14:45:00 -0.3 C 4.6 g/m*3 -0.3 C 1.6 km/h
179 29-12-2016 14:50:00 -0.3 C 4.6 g/m*3 -0.3 C 3.2 km/h
180 29-12-2016 14:55:00 -0.3 C 4.6 g/m*3 -0.3 C 1.6 km/h
181 29-12-2016 15:00:00 -0.2 C 4.64 g/m*3 -0.2 C 0 km/h
182 29-12-2016 15:05:00 -0.2 C 4.64 g/m*3 -0.2 C 0 km/h
183 29-12-2016 15:10:00 -0.2 C 4.64 g/m*3 -0.2 C 0 km/h
184 29-12-2016 15:15:00 -0.2 C 4.64 g/m*3 -0.2 C 1.6 km/h
185 29-12-2016 15:20:00 -0.2 C 4.64 g/m*3 -0.2 C 3.2 km/h
186 29-12-2016 15:25:00 -0.2 C 4.64 g/m*3 -0.2 C 0 km/h
187 29-12-2016 15:30:00 -0.2 C 4.64 g/m*3 -0.2 C 0 km/h
188 29-12-2016 15:35:00 -0.2 C 4.64 g/m*3 -0.2 C 1.6 km/h
189 29-12-2016 15:40:00 -0.2 C 4.64 g/m*3 -0.2 C 0 km/h
190 29-12-2016 15:45:00 -0.2 C 4.64 g/m*3 -0.2 C 0 km/h
191 29-12-2016 15:50:00 -0.3 C 4.6 g/m*3 -0.3 C 1.6 km/h
192 29-12-2016 15:55:00 -0.3 C 4.6 g/m*3 -0.3 C 0 km/h
193 29-12-2016 16:00:00 -0.4 C 4.57 g/m*3 -0.4 C 1.6 km/h
194 29-12-2016 16:05:00 -0.4 C 4.57 g/m*3 -0.4 C 0 km/h
195 29-12-2016 16:10:00 -0.4 C 4.57 g/m*3 -0.4 C 0 km/h
196 29-12-2016 16:15:00 -0.5 C 4.54 g/m*3 -0.5 C 0 km/h
197 29-12-2016 16:20:00 -0.6 C 4.51 g/m*3 -0.6 C 0 km/h
198 29-12-2016 16:25:00 -0.6 C 4.51 g/m*3 -0.6 C 0 km/h
199 29-12-2016 16:30:00 -0.6 C 4.51 g/m*3 -0.6 C 0 km/h
200 29-12-2016 16:35:00 -0.6 C 4.51 g/m*3 -0.6 C 0 km/h
Sensor: Nr:Datum:Temp:Abs-Feuchte:Windchill:Wind:
Aussen-T/F 201 29-12-2016 16:40:00 -0.7 C 4.48 g/m*3 -0.7 C 0 km/h
202 29-12-2016 16:45:00 -0.8 C 4.45 g/m*3 -0.8 C 0 km/h
203 29-12-2016 16:50:00 -0.8 C 4.45 g/m*3 -0.8 C 0 km/h
204 29-12-2016 16:55:00 -0.9 C 4.42 g/m*3 -0.9 C 0 km/h
205 29-12-2016 17:00:00 -0.9 C 4.42 g/m*3 -0.9 C 0 km/h
206 29-12-2016 17:05:00 -0.9 C 4.42 g/m*3 -0.9 C 0 km/h
207 29-12-2016 17:10:00 -0.9 C 4.42 g/m*3 -0.9 C 0 km/h
208 29-12-2016 17:15:00 -1 C 4.38 g/m*3 -1 C 0 km/h
209 29-12-2016 17:20:00 -1.1 C 4.35 g/m*3 -1.1 C 0 km/h
210 29-12-2016 17:25:00 -1.1 C 4.35 g/m*3 -1.1 C 0 km/h
211 29-12-2016 17:30:00 -1.1 C 4.35 g/m*3 -1.1 C 0 km/h
212 29-12-2016 17:35:00 -1.1 C 4.35 g/m*3 -1.1 C 0 km/h
213 29-12-2016 17:40:00 -1.1 C 4.35 g/m*3 -1.1 C 0 km/h
214 29-12-2016 17:45:00 -1.2 C 4.32 g/m*3 -1.2 C 0 km/h
215 29-12-2016 17:50:00 -1.2 C 4.32 g/m*3 -1.2 C 0 km/h
216 29-12-2016 17:55:00 -1.2 C 4.32 g/m*3 -1.2 C 0 km/h
217 29-12-2016 18:00:00 -1.2 C 4.32 g/m*3 -1.2 C 0 km/h
218 29-12-2016 18:05:00 -1.3 C 4.29 g/m*3 -1.3 C 0 km/h
219 29-12-2016 18:10:00 -1.3 C 4.29 g/m*3 -1.3 C 0 km/h
220 29-12-2016 18:15:00 -1.3 C 4.29 g/m*3 -1.3 C 0 km/h
221 29-12-2016 18:20:00 -1.4 C 4.26 g/m*3 -1.4 C 0 km/h
222 29-12-2016 18:25:00 -1.4 C 4.26 g/m*3 -1.4 C 0 km/h
223 29-12-2016 18:30:00 -1.5 C 4.23 g/m*3 -1.5 C 0 km/h
224 29-12-2016 18:35:00 -1.6 C 4.21 g/m*3 -1.6 C 0 km/h
225 29-12-2016 18:40:00 -1.6 C 4.21 g/m*3 -1.6 C 0 km/h
Sensor: Nr:Datum:Temp:Abs-Feuchte:Windchill:Wind:
Aussen-T/F 226 29-12-2016 18:45:00 -1.6 C 4.21 g/m*3 -1.6 C 0 km/h
227 29-12-2016 18:50:00 -1.6 C 4.21 g/m*3 -1.6 C 0 km/h
228 29-12-2016 18:55:00 -1.6 C 4.21 g/m*3 -1.6 C 0 km/h
229 29-12-2016 19:00:00 -1.6 C 4.21 g/m*3 -1.6 C 0 km/h
230 29-12-2016 19:05:00 -1.5 C 4.23 g/m*3 -1.5 C 0 km/h
231 29-12-2016 19:10:00 -1.6 C 4.21 g/m*3 -1.6 C 0 km/h
232 29-12-2016 19:15:00 -1.6 C 4.21 g/m*3 -1.6 C 0 km/h
233 29-12-2016 19:20:00 -1.6 C 4.21 g/m*3 -1.6 C 0 km/h
234 29-12-2016 19:25:00 -1.6 C 4.21 g/m*3 -1.6 C 0 km/h
235 29-12-2016 19:30:00 -1.6 C 4.21 g/m*3 -1.6 C 0 km/h
236 29-12-2016 19:35:00 -1.7 C 4.18 g/m*3 -1.7 C 0 km/h
237 29-12-2016 19:40:00 -1.7 C 4.18 g/m*3 -1.7 C 0 km/h
238 29-12-2016 19:45:00 -1.7 C 4.18 g/m*3 -1.7 C 0 km/h
239 29-12-2016 19:50:00 -1.8 C 4.15 g/m*3 -1.8 C 0 km/h
240 29-12-2016 19:55:00 -1.8 C 4.15 g/m*3 -1.8 C 0 km/h
241 29-12-2016 20:00:00 -1.8 C 4.15 g/m*3 -1.8 C 0 km/h
242 29-12-2016 20:05:00 -1.9 C 4.12 g/m*3 -1.9 C 0 km/h
243 29-12-2016 20:10:00 -2.1 C 4.06 g/m*3 -2.1 C 0 km/h
244 29-12-2016 20:15:00 -2.1 C 4.06 g/m*3 -2.1 C 0 km/h
245 29-12-2016 20:20:00 -2.1 C 4.06 g/m*3 -2.1 C 0 km/h
246 29-12-2016 20:25:00 -2.1 C 4.06 g/m*3 -2.1 C 0 km/h
247 29-12-2016 20:30:00 -2.1 C 4.06 g/m*3 -2.1 C 0 km/h
248 29-12-2016 20:35:00 -2.1 C 4.06 g/m*3 -2.1 C 0 km/h
249 29-12-2016 20:40:00 -2.1 C 4.06 g/m*3 -2.1 C 0 km/h
250 29-12-2016 20:45:00 -2.1 C 4.06 g/m*3 -2.1 C 0 km/h
Sensor: Nr:Datum:Temp:Abs-Feuchte:Windchill:Wind:
Aussen-T/F 251 29-12-2016 20:50:00 -2 C 4.09 g/m*3 -2 C 0 km/h
252 29-12-2016 20:55:00 -2 C 4.09 g/m*3 -2 C 0 km/h
253 29-12-2016 21:00:00 -2 C 4.09 g/m*3 -2 C 3.2 km/h
254 29-12-2016 21:05:00 -2 C 4.09 g/m*3 -2 C 0 km/h
255 29-12-2016 21:10:00 -2 C 4.09 g/m*3 -2 C 0 km/h
256 29-12-2016 21:15:00 -2 C 4.09 g/m*3 -2 C 0 km/h
257 29-12-2016 21:20:00 -2 C 4.09 g/m*3 -2 C 0 km/h
258 29-12-2016 21:25:00 -2.1 C 4.06 g/m*3 -2.1 C 0 km/h
259 29-12-2016 21:30:00 -2.1 C 4.06 g/m*3 -2.1 C 0 km/h
260 29-12-2016 21:35:00 -2.2 C 4.03 g/m*3 -2.2 C 0 km/h
261 29-12-2016 21:40:00 -2.3 C 4 g/m*3 -2.3 C 0 km/h
262 29-12-2016 21:45:00 -2.3 C 4 g/m*3 -2.3 C 0 km/h
263 29-12-2016 21:50:00 -2.4 C 3.98 g/m*3 -2.4 C 0 km/h
264 29-12-2016 21:55:00 -2.4 C 3.98 g/m*3 -2.4 C 0 km/h
265 29-12-2016 22:00:00 -2.4 C 3.98 g/m*3 -2.4 C 0 km/h
266 29-12-2016 22:05:00 -2.4 C 3.98 g/m*3 -2.4 C 0 km/h
267 29-12-2016 22:10:00 -2.4 C 3.98 g/m*3 -2.4 C 0 km/h
268 29-12-2016 22:15:00 -2.4 C 3.98 g/m*3 -2.4 C 0 km/h
269 29-12-2016 22:20:00 -2.4 C 3.98 g/m*3 -2.4 C 0 km/h
270 29-12-2016 22:25:00 -2.4 C 3.98 g/m*3 -2.4 C 0 km/h
271 29-12-2016 22:30:00 -2.4 C 3.98 g/m*3 -2.4 C 0 km/h
272 29-12-2016 22:35:00 -2.4 C 3.98 g/m*3 -2.4 C 0 km/h
273 29-12-2016 22:40:00 -2.4 C 3.98 g/m*3 -2.4 C 0 km/h
274 29-12-2016 22:45:00 -2.3 C 4 g/m*3 -2.3 C 0 km/h
275 29-12-2016 22:50:00 -2.3 C 4 g/m*3 -2.3 C 0 km/h
Sensor: Nr:Datum:Temp:Abs-Feuchte:Windchill:Wind:
Aussen-T/F 276 29-12-2016 22:55:00 -2.3 C 4 g/m*3 -2.3 C 0 km/h
277 29-12-2016 23:00:00 -2.4 C 3.98 g/m*3 -2.4 C 0 km/h
278 29-12-2016 23:05:00 -2.4 C 3.98 g/m*3 -2.4 C 0 km/h
279 29-12-2016 23:10:00 -2.4 C 3.93 g/m*3 -2.4 C 0 km/h
280 29-12-2016 23:15:00 -2.5 C 3.91 g/m*3 -2.5 C 0 km/h
281 29-12-2016 23:20:00 -2.5 C 3.91 g/m*3 -2.5 C 0 km/h
282 29-12-2016 23:25:00 -2.5 C 3.91 g/m*3 -2.5 C 0 km/h
283 29-12-2016 23:30:00 -2.5 C 3.91 g/m*3 -2.5 C 0 km/h
284 29-12-2016 23:35:00 -2.5 C 3.91 g/m*3 -2.5 C 0 km/h
285 29-12-2016 23:40:00 -2.6 C 3.88 g/m*3 -2.6 C 0 km/h
286 29-12-2016 23:45:00 -2.6 C 3.88 g/m*3 -2.6 C 0 km/h
287 29-12-2016 23:50:00 -2.6 C 3.88 g/m*3 -2.6 C 0 km/h
288 29-12-2016 23:55:00 -2.6 C 3.88 g/m*3 -2.6 C 0 km/h

Legende:
   Min
   Max


Maximal/Minimal-Werte vom 29.12.2016 - 29.12.2016

Sensor Min Max Avg
Temp
(Aussen-T/F)
-2.8 °C
29-12-2016  09:55:00
-0.2 °C
29-12-2016  15:00:00
-1.78 °C
Abs-Feuchte
(Aussen-T/F)
3.82 g/m*3
29-12-2016  09:55:00
4.64 g/m*3
29-12-2016  15:00:00
4.11 g/m*3
Windchill
(Aussen-T/F)
-2.8 C
29-12-2016  09:55:00
-0.2 C
29-12-2016  15:00:00
-1.78 C

Die Daten stammen von einer Davis Vantage Pro 2 Wetter-Station und werden unter Linux mit der Software wview2wettercgi und aufbereitet. Alle Angaben erfolgen ohne Gewähr für ihre Vollständigkeit oder Richtigkeit.
Kontakt: Rainer Krienke krienke@uni-koblenz.de . Meine Webseiten an der Uni Koblenz oder privat.
Version: $Revision: 0.78 $